sensor_id;sensor_type;location;lat;lon;timestamp;pressure;altitude;pressure_sealevel;temperature;humidity
10476;BME280;26166;48.264;11.436;2022-12-26T00:02:28;96277.59;;;11.08;63.41
10476;BME280;26166;48.264;11.436;2022-12-26T00:05:28;96282.84;;;11.08;63.64
10476;BME280;26166;48.264;11.436;2022-12-26T00:08:33;96280.53;;;11.05;63.14
10476;BME280;26166;48.264;11.436;2022-12-26T00:11:34;96291.72;;;11.07;63.30
10476;BME280;26166;48.264;11.436;2022-12-26T00:14:34;96291.72;;;11.07;63.64
10476;BME280;26166;48.264;11.436;2022-12-26T00:17:34;96294.34;;;11.07;63.26
10476;BME280;26166;48.264;11.436;2022-12-26T00:20:34;96297.94;;;11.06;63.23
10476;BME280;26166;48.264;11.436;2022-12-26T00:23:35;96302.25;;;11.07;63.30
10476;BME280;26166;48.264;11.436;2022-12-26T00:26:35;96304.88;;;11.07;63.18
10476;BME280;26166;48.264;11.436;2022-12-26T00:29:35;96299.59;;;11.07;63.31
10476;BME280;26166;48.264;11.436;2022-12-26T00:32:36;96295.97;;;11.08;63.24
10476;BME280;26166;48.264;11.436;2022-12-26T00:35:36;96291.06;;;11.05;63.31
10476;BME280;26166;48.264;11.436;2022-12-26T00:38:36;96291.72;;;11.07;63.49
10476;BME280;26166;48.264;11.436;2022-12-26T00:41:37;96289.09;;;11.07;63.31
10476;BME280;26166;48.264;11.436;2022-12-26T00:44:37;96296.97;;;11.07;63.57
10476;BME280;26166;48.264;11.436;2022-12-26T00:47:37;96294.69;;;11.04;63.46
10476;BME280;26166;48.264;11.436;2022-12-26T00:50:37;96294.69;;;11.04;63.22
10476;BME280;26166;48.264;11.436;2022-12-26T00:53:37;96302.56;;;11.04;63.37
10476;BME280;26166;48.264;11.436;2022-12-26T00:56:38;96282.34;;;11.04;63.17
10476;BME280;26166;48.264;11.436;2022-12-26T00:59:38;96297.31;;;11.04;63.69
10476;BME280;26166;48.264;11.436;2022-12-26T01:02:38;96293.03;;;11.03;63.12
10476;BME280;26166;48.264;11.436;2022-12-26T01:05:42;96299.25;;;11.02;63.20
10476;BME280;26166;48.264;11.436;2022-12-26T01:08:43;96304.53;;;11.02;63.28
10476;BME280;26166;48.264;11.436;2022-12-26T01:11:43;96298.31;;;11.03;63.52
10476;BME280;26166;48.264;11.436;2022-12-26T01:14:44;96304.53;;;11.02;62.93
10476;BME280;26166;48.264;11.436;2022-12-26T01:17:44;96310.63;;;11.02;63.06
10476;BME280;26166;48.264;11.436;2022-12-26T01:20:44;96308.47;;;10.98;62.69
10476;BME280;26166;48.264;11.436;2022-12-26T01:23:45;96320.66;;;10.99;63.03
10476;BME280;26166;48.264;11.436;2022-12-26T01:26:45;96324.25;;;10.98;63.20
10476;BME280;26166;48.264;11.436;2022-12-26T01:29:45;96329.50;;;10.98;62.86
10476;BME280;26166;48.264;11.436;2022-12-26T01:32:45;96331.16;;;10.99;62.85
10476;BME280;26166;48.264;11.436;2022-12-26T01:35:49;96333.94;;;10.97;62.74
10476;BME280;26166;48.264;11.436;2022-12-26T01:38:50;96346.94;;;10.99;62.71
10476;BME280;26166;48.264;11.436;2022-12-26T01:41:50;96341.00;;;10.97;62.94
10476;BME280;26166;48.264;11.436;2022-12-26T01:44:55;96338.56;;;10.95;62.72
10476;BME280;26166;48.264;11.436;2022-12-26T01:51:03;96342.00;;;10.96;62.68
10476;BME280;26166;48.264;11.436;2022-12-26T01:54:04;96350.38;;;10.99;62.87
10476;BME280;26166;48.264;11.436;2022-12-26T01:57:09;96347.75;;;10.99;63.01
10476;BME280;26166;48.264;11.436;2022-12-26T02:00:11;96342.50;;;10.99;62.74
10476;BME280;26166;48.264;11.436;2022-12-26T02:03:11;96346.59;;;11.02;63.12
10476;BME280;26166;48.264;11.436;2022-12-26T02:06:30;96341.50;;;11.00;62.94
10476;BME280;26166;48.264;11.436;2022-12-26T02:09:31;96341.69;;;10.99;63.07
10476;BME280;26166;48.264;11.436;2022-12-26T02:12:32;96345.28;;;10.98;62.70
10476;BME280;26166;48.264;11.436;2022-12-26T02:15:33;96340.00;;;10.98;62.76
10476;BME280;26166;48.264;11.436;2022-12-26T02:18:34;96342.63;;;10.98;62.62
10476;BME280;26166;48.264;11.436;2022-12-26T02:21:43;96346.13;;;10.98;62.75
10476;BME280;26166;48.264;11.436;2022-12-26T02:25:05;96344.63;;;10.96;62.60
10476;BME280;26166;48.264;11.436;2022-12-26T02:43:43;96342.50;;;10.91;62.23
10476;BME280;26166;48.264;11.436;2022-12-26T02:46:48;96340.69;;;10.92;61.97
10476;BME280;26166;48.264;11.436;2022-12-26T02:57:03;96318.22;;;10.89;62.49
10476;BME280;26166;48.264;11.436;2022-12-26T03:00:22;96330.50;;;10.89;62.22
10476;BME280;26166;48.264;11.436;2022-12-26T03:03:41;96328.53;;;10.91;62.44
10476;BME280;26166;48.264;11.436;2022-12-26T03:07:01;96330.34;;;10.90;62.53
10476;BME280;26166;48.264;11.436;2022-12-26T03:10:23;96320.34;;;10.94;62.42
10476;BME280;26166;48.264;11.436;2022-12-26T03:13:43;96328.22;;;10.94;62.57
10476;BME280;26166;48.264;11.436;2022-12-26T03:16:45;96332.13;;;10.98;62.85
10476;BME280;26166;48.264;11.436;2022-12-26T03:23:10;96331.16;;;10.99;62.59
10476;BME280;26166;48.264;11.436;2022-12-26T03:26:16;96333.63;;;11.00;62.86
10476;BME280;26166;48.264;11.436;2022-12-26T03:29:36;96335.44;;;11.00;62.60
10476;BME280;26166;48.264;11.436;2022-12-26T03:32:55;96326.41;;;11.02;62.67
10476;BME280;26166;48.264;11.436;2022-12-26T03:35:56;96325.56;;;11.02;62.78
10476;BME280;26166;48.264;11.436;2022-12-26T03:49:20;96317.72;;;10.94;62.69
10476;BME280;26166;48.264;11.436;2022-12-26T03:52:44;96317.72;;;10.94;62.55
10476;BME280;26166;48.264;11.436;2022-12-26T03:59:28;96320.47;;;10.92;62.28
10476;BME280;26166;48.264;11.436;2022-12-26T04:02:48;96321.66;;;10.90;62.50
10476;BME280;26166;48.264;11.436;2022-12-26T04:06:15;96324.09;;;10.91;62.51
10476;BME280;26166;48.264;11.436;2022-12-26T04:10:19;96338.38;;;10.89;62.35
10476;BME280;26166;48.264;11.436;2022-12-26T04:13:19;96333.00;;;10.90;62.33
10476;BME280;26166;48.264;11.436;2022-12-26T04:16:48;96339.38;;;10.88;61.93
10476;BME280;26166;48.264;11.436;2022-12-26T04:20:15;96347.25;;;10.88;62.27
10476;BME280;26166;48.264;11.436;2022-12-26T04:23:20;96348.91;;;10.89;61.93
10476;BME280;26166;48.264;11.436;2022-12-26T04:26:57;96358.78;;;10.86;61.88
10476;BME280;26166;48.264;11.436;2022-12-26T04:30:19;96358.09;;;10.84;62.07
10476;BME280;26166;48.264;11.436;2022-12-26T04:33:40;96355.47;;;10.84;61.87
10476;BME280;26166;48.264;11.436;2022-12-26T04:37:01;96349.41;;;10.84;61.50
10476;BME280;26166;48.264;11.436;2022-12-26T04:40:23;96341.69;;;10.82;61.57
10476;BME280;26166;48.264;11.436;2022-12-26T04:43:44;96342.50;;;10.83;61.29
10476;BME280;26166;48.264;11.436;2022-12-26T04:47:24;96338.44;;;10.80;61.45
10476;BME280;26166;48.264;11.436;2022-12-26T04:50:24;96345.13;;;10.83;61.67
10476;BME280;26166;48.264;11.436;2022-12-26T04:53:24;96346.63;;;10.85;61.66
10476;BME280;26166;48.264;11.436;2022-12-26T04:56:25;96343.00;;;10.86;61.60
10476;BME280;26166;48.264;11.436;2022-12-26T04:59:25;96338.06;;;10.83;61.19
10476;BME280;26166;48.264;11.436;2022-12-26T05:02:25;96340.56;;;10.85;61.70
10476;BME280;26166;48.264;11.436;2022-12-26T05:05:46;96340.69;;;10.83;61.54
10476;BME280;26166;48.264;11.436;2022-12-26T05:09:07;96325.75;;;10.84;61.53
10476;BME280;26166;48.264;11.436;2022-12-26T05:12:26;96331.19;;;10.82;61.01
10476;BME280;26166;48.264;11.436;2022-12-26T05:15:27;96344.50;;;10.81;61.32
10476;BME280;26166;48.264;11.436;2022-12-26T05:18:27;96335.94;;;10.79;60.95
10476;BME280;26166;48.264;11.436;2022-12-26T05:21:46;96348.25;;;10.78;61.15
10476;BME280;26166;48.264;11.436;2022-12-26T05:25:09;96345.31;;;10.81;61.37
10476;BME280;26166;48.264;11.436;2022-12-26T05:28:30;96352.19;;;10.82;61.47
10476;BME280;26166;48.264;11.436;2022-12-26T05:31:42;96350.56;;;10.81;61.33
10476;BME280;26166;48.264;11.436;2022-12-26T05:34:43;96355.81;;;10.81;61.37
10476;BME280;26166;48.264;11.436;2022-12-26T05:37:43;96356.16;;;10.78;61.22
10476;BME280;26166;48.264;11.436;2022-12-26T05:40:43;96355.81;;;10.81;60.85
10476;BME280;26166;48.264;11.436;2022-12-26T05:43:43;96362.06;;;10.80;61.22
10476;BME280;26166;48.264;11.436;2022-12-26T05:46:43;96362.72;;;10.82;61.64
10476;BME280;26166;48.264;11.436;2022-12-26T05:49:45;96362.72;;;10.82;61.52
10476;BME280;26166;48.264;11.436;2022-12-26T05:52:45;96365.16;;;10.84;61.56
10476;BME280;26166;48.264;11.436;2022-12-26T05:55:46;96361.91;;;10.82;61.37
10476;BME280;26166;48.264;11.436;2022-12-26T05:58:46;96355.31;;;10.86;61.53
10476;BME280;26166;48.264;11.436;2022-12-26T06:01:46;96359.09;;;10.83;61.75
10476;BME280;26166;48.264;11.436;2022-12-26T06:04:46;96354.34;;;10.87;61.59
10476;BME280;26166;48.264;11.436;2022-12-26T06:07:47;96353.50;;;10.86;61.48
10476;BME280;26166;48.264;11.436;2022-12-26T06:10:47;96352.84;;;10.84;61.40
10476;BME280;26166;48.264;11.436;2022-12-26T06:13:47;96348.44;;;10.85;61.23
10476;BME280;26166;48.264;11.436;2022-12-26T06:16:48;96353.50;;;10.86;61.47
10476;BME280;26166;48.264;11.436;2022-12-26T06:19:48;96346.28;;;10.89;61.47
10476;BME280;26166;48.264;11.436;2022-12-26T06:22:48;96354.34;;;10.87;61.61
10476;BME280;26166;48.264;11.436;2022-12-26T06:25:52;96351.53;;;10.89;61.85
10476;BME280;26166;48.264;11.436;2022-12-26T06:28:52;96350.72;;;10.88;61.44
10476;BME280;26166;48.264;11.436;2022-12-26T06:31:55;96339.06;;;10.91;61.59
10476;BME280;26166;48.264;11.436;2022-12-26T06:34:55;96325.25;;;10.89;61.82
10476;BME280;26166;48.264;11.436;2022-12-26T06:37:56;96349.75;;;10.89;61.63
10476;BME280;26166;48.264;11.436;2022-12-26T06:40:56;96353.84;;;10.92;61.69
10476;BME280;26166;48.264;11.436;2022-12-26T06:43:56;96348.75;;;10.90;61.30
10476;BME280;26166;48.264;11.436;2022-12-26T06:46:57;96344.94;;;10.93;61.52
10476;BME280;26166;48.264;11.436;2022-12-26T06:49:57;96341.88;;;10.89;61.43
10476;BME280;26166;48.264;11.436;2022-12-26T06:52:57;96346.28;;;10.89;61.75
10476;BME280;26166;48.264;11.436;2022-12-26T06:56:04;96348.75;;;10.90;61.51
10476;BME280;26166;48.264;11.436;2022-12-26T06:59:04;96353.50;;;10.86;61.57
10476;BME280;26166;48.264;11.436;2022-12-26T07:02:05;96355.16;;;10.88;61.85
10476;BME280;26166;48.264;11.436;2022-12-26T07:05:05;96359.75;;;10.85;61.63
10476;BME280;26166;48.264;11.436;2022-12-26T07:08:05;96349.91;;;10.88;61.25
10476;BME280;26166;48.264;11.436;2022-12-26T07:11:11;96338.88;;;10.84;61.06
10476;BME280;26166;48.264;11.436;2022-12-26T07:14:12;96340.88;;;10.82;61.27
10476;BME280;26166;48.264;11.436;2022-12-26T07:17:13;96349.56;;;10.82;61.54
10476;BME280;26166;48.264;11.436;2022-12-26T07:20:13;96355.81;;;10.81;61.80
10476;BME280;26166;48.264;11.436;2022-12-26T07:23:13;96362.41;;;10.85;61.48
10476;BME280;26166;48.264;11.436;2022-12-26T07:26:13;96366.84;;;10.85;61.51
10476;BME280;26166;48.264;11.436;2022-12-26T07:29:14;96366.66;;;10.86;61.94
10476;BME280;26166;48.264;11.436;2022-12-26T07:32:14;96364.03;;;10.86;61.98
10476;BME280;26166;48.264;11.436;2022-12-26T07:35:15;96370.91;;;10.88;61.76
10476;BME280;26166;48.264;11.436;2022-12-26T07:38:15;96359.25;;;10.90;62.09
10476;BME280;26166;48.264;11.436;2022-12-26T07:41:15;96368.16;;;10.89;62.34
10476;BME280;26166;48.264;11.436;2022-12-26T07:44:34;96373.88;;;10.93;62.21
10476;BME280;26166;48.264;11.436;2022-12-26T07:47:34;96373.88;;;10.93;62.39
10476;BME280;26166;48.264;11.436;2022-12-26T07:50:34;96385.53;;;10.98;62.23
10476;BME280;26166;48.264;11.436;2022-12-26T07:53:34;96383.56;;;11.00;62.16
10476;BME280;26166;48.264;11.436;2022-12-26T07:56:35;96378.78;;;10.96;62.07
10476;BME280;26166;48.264;11.436;2022-12-26T07:59:35;96380.09;;;11.00;62.69
10476;BME280;26166;48.264;11.436;2022-12-26T08:02:36;96383.72;;;10.99;62.47
10476;BME280;26166;48.264;11.436;2022-12-26T08:05:36;96378.47;;;10.99;62.69
10476;BME280;26166;48.264;11.436;2022-12-26T08:08:36;96381.75;;;11.01;62.43
10476;BME280;26166;48.264;11.436;2022-12-26T08:11:36;96366.66;;;11.03;62.68
10476;BME280;26166;48.264;11.436;2022-12-26T08:14:36;96370.22;;;11.02;62.60
10476;BME280;26166;48.264;11.436;2022-12-26T08:17:37;96362.19;;;11.03;62.93
10476;BME280;26166;48.264;11.436;2022-12-26T08:20:37;96355.78;;;11.06;62.67
10476;BME280;26166;48.264;11.436;2022-12-26T08:23:37;96357.59;;;11.05;62.58
10476;BME280;26166;48.264;11.436;2022-12-26T08:26:38;96356.59;;;11.06;62.93
10476;BME280;26166;48.264;11.436;2022-12-26T08:29:38;96350.69;;;11.04;62.59
10476;BME280;26166;48.264;11.436;2022-12-26T08:32:38;96354.97;;;11.05;63.02
10476;BME280;26166;48.264;11.436;2022-12-26T08:35:38;96358.41;;;11.06;63.02
10476;BME280;26166;48.264;11.436;2022-12-26T08:38:39;96364.47;;;11.06;62.80
10476;BME280;26166;48.264;11.436;2022-12-26T08:41:40;96366.28;;;11.06;62.95
10476;BME280;26166;48.264;11.436;2022-12-26T08:44:40;96371.72;;;11.04;62.57
10476;BME280;26166;48.264;11.436;2022-12-26T08:47:40;96367.28;;;11.05;62.89
10476;BME280;26166;48.264;11.436;2022-12-26T08:50:40;96366.66;;;11.03;63.34
10476;BME280;26166;48.264;11.436;2022-12-26T08:53:41;96363.84;;;11.04;63.14
10476;BME280;26166;48.264;11.436;2022-12-26T08:56:41;96357.94;;;11.02;63.30
10476;BME280;26166;48.264;11.436;2022-12-26T08:59:41;96356.78;;;11.05;63.23
10476;BME280;26166;48.264;11.436;2022-12-26T09:02:42;96345.94;;;11.08;63.25
10476;BME280;26166;48.264;11.436;2022-12-26T09:05:42;96343.94;;;11.10;63.26
10476;BME280;26166;48.264;11.436;2022-12-26T09:08:42;96347.38;;;11.10;63.14
10476;BME280;26166;48.264;11.436;2022-12-26T09:11:42;96347.25;;;11.12;63.49
10476;BME280;26166;48.264;11.436;2022-12-26T09:14:43;96361.03;;;11.14;62.92
10476;BME280;26166;48.264;11.436;2022-12-26T09:17:43;96354.78;;;11.15;63.11
10476;BME280;26166;48.264;11.436;2022-12-26T09:20:43;96355.63;;;11.16;63.52
10476;BME280;26166;48.264;11.436;2022-12-26T09:23:44;96354.63;;;11.17;63.50
10476;BME280;26166;48.264;11.436;2022-12-26T09:26:44;96344.94;;;11.17;63.48
10476;BME280;26166;48.264;11.436;2022-12-26T09:29:44;96354.44;;;11.18;63.19
10476;BME280;26166;48.264;11.436;2022-12-26T09:32:44;96350.19;;;11.17;63.24
10476;BME280;26166;48.264;11.436;2022-12-26T09:35:45;96359.53;;;11.20;63.37
10476;BME280;26166;48.264;11.436;2022-12-26T09:38:45;96355.94;;;11.21;63.40
10476;BME280;26166;48.264;11.436;2022-12-26T09:45:04;96359.38;;;11.21;63.41
10476;BME280;26166;48.264;11.436;2022-12-26T09:51:10;96355.75;;;11.22;63.52
10476;BME280;26166;48.264;11.436;2022-12-26T09:54:15;96350.50;;;11.22;63.35
10476;BME280;26166;48.264;11.436;2022-12-26T09:57:19;96353.13;;;11.22;63.82
10476;BME280;26166;48.264;11.436;2022-12-26T10:00:25;96340.78;;;11.23;63.47
10476;BME280;26166;48.264;11.436;2022-12-26T10:03:27;96339.97;;;11.22;63.43
10476;BME280;26166;48.264;11.436;2022-12-26T10:18:51;96322.88;;;11.26;63.42
10476;BME280;26166;48.264;11.436;2022-12-26T10:21:56;96336.66;;;11.28;63.59
10476;BME280;26166;48.264;11.436;2022-12-26T10:25:02;96337.97;;;11.32;63.35
10476;BME280;26166;48.264;11.436;2022-12-26T10:28:14;96319.41;;;11.34;62.99
10476;BME280;26166;48.264;11.436;2022-12-26T10:31:23;96330.75;;;11.34;62.99
10476;BME280;26166;48.264;11.436;2022-12-26T10:34:30;96330.56;;;11.36;62.88
10476;BME280;26166;48.264;11.436;2022-12-26T10:37:33;96324.50;;;11.35;62.76
10476;BME280;26166;48.264;11.436;2022-12-26T10:40:42;96324.50;;;11.35;63.25
10476;BME280;26166;48.264;11.436;2022-12-26T10:43:43;96324.50;;;11.35;63.08
10476;BME280;26166;48.264;11.436;2022-12-26T10:49:53;96327.75;;;11.37;62.96
10476;BME280;26166;48.264;11.436;2022-12-26T10:52:58;96332.69;;;11.41;63.17
10476;BME280;26166;48.264;11.436;2022-12-26T10:55:59;96334.50;;;11.40;63.13
10476;BME280;26166;48.264;11.436;2022-12-26T10:59:01;96334.31;;;11.42;62.89
10476;BME280;26166;48.264;11.436;2022-12-26T11:02:22;96333.34;;;11.43;62.50
10476;BME280;26166;48.264;11.436;2022-12-26T11:05:23;96337.78;;;11.42;62.67
10476;BME280;26166;48.264;11.436;2022-12-26T11:08:32;96329.06;;;11.42;62.74
10476;BME280;26166;48.264;11.436;2022-12-26T11:11:34;96340.25;;;11.44;62.59
10476;BME280;26166;48.264;11.436;2022-12-26T11:14:44;96334.97;;;11.44;62.41
10476;BME280;26166;48.264;11.436;2022-12-26T11:17:46;96341.88;;;11.45;62.60
10476;BME280;26166;48.264;11.436;2022-12-26T11:20:47;96344.50;;;11.45;62.79
10476;BME280;26166;48.264;11.436;2022-12-26T11:23:48;96347.13;;;11.45;62.41
10476;BME280;26166;48.264;11.436;2022-12-26T11:26:48;96344.69;;;11.43;62.62
10476;BME280;26166;48.264;11.436;2022-12-26T11:29:48;96353.41;;;11.44;62.83
10476;BME280;26166;48.264;11.436;2022-12-26T11:39:24;96355.50;;;11.56;62.23
10476;BME280;26166;48.264;11.436;2022-12-26T11:42:26;96367.66;;;11.57;62.47
10476;BME280;26166;48.264;11.436;2022-12-26T11:45:27;96364.03;;;11.58;62.27
10476;BME280;26166;48.264;11.436;2022-12-26T11:48:28;96360.38;;;11.59;62.68
10476;BME280;26166;48.264;11.436;2022-12-26T11:51:32;96370.59;;;11.62;62.33
10476;BME280;26166;48.264;11.436;2022-12-26T11:54:34;96395.25;;;11.70;62.31
10476;BME280;26166;48.264;11.436;2022-12-26T11:57:35;96393.53;;;11.77;62.21
10476;BME280;26166;48.264;11.436;2022-12-26T12:03:42;96406.72;;;11.85;62.29
10476;BME280;26166;48.264;11.436;2022-12-26T12:09:58;96431.22;;;11.85;63.05
10476;BME280;26166;48.264;11.436;2022-12-26T12:13:05;96431.41;;;11.84;63.05
10476;BME280;26166;48.264;11.436;2022-12-26T12:19:39;96440.09;;;11.76;64.06
10476;BME280;26166;48.264;11.436;2022-12-26T12:29:15;96445.38;;;11.68;65.15
10476;BME280;26166;48.264;11.436;2022-12-26T12:42:02;96454.28;;;11.59;66.22
10476;BME280;26166;48.264;11.436;2022-12-26T12:45:28;96446.41;;;11.59;66.61
10476;BME280;26166;48.264;11.436;2022-12-26T12:55:22;96448.91;;;11.52;66.66
10476;BME280;26166;48.264;11.436;2022-12-26T13:01:26;96465.50;;;11.53;66.84
10476;BME280;26166;48.264;11.436;2022-12-26T13:04:32;96476.03;;;11.53;66.52
10476;BME280;26166;48.264;11.436;2022-12-26T13:07:35;96481.28;;;11.53;66.78
10476;BME280;26166;48.264;11.436;2022-12-26T13:10:37;96479.66;;;11.52;66.63
10476;BME280;26166;48.264;11.436;2022-12-26T13:13:52;96477.97;;;11.51;66.77
10476;BME280;26166;48.264;11.436;2022-12-26T13:16:54;96477.97;;;11.51;66.87
10476;BME280;26166;48.264;11.436;2022-12-26T13:20:04;96477.97;;;11.51;67.22
10476;BME280;26166;48.264;11.436;2022-12-26T13:23:06;96477.16;;;11.50;67.25
10476;BME280;26166;48.264;11.436;2022-12-26T13:26:43;96480.78;;;11.49;67.23
10476;BME280;26166;48.264;11.436;2022-12-26T13:29:46;96481.59;;;11.50;67.19
10476;BME280;26166;48.264;11.436;2022-12-26T13:32:47;96490.50;;;11.49;67.03
10476;BME280;26166;48.264;11.436;2022-12-26T13:51:39;96509.91;;;11.48;67.34
10476;BME280;26166;48.264;11.436;2022-12-26T13:57:46;96515.16;;;11.48;67.51
10476;BME280;26166;48.264;11.436;2022-12-26T14:04:16;96503.00;;;11.47;67.50
10476;BME280;26166;48.264;11.436;2022-12-26T14:14:03;96521.41;;;11.47;67.61
10476;BME280;26166;48.264;11.436;2022-12-26T14:30:23;96530.28;;;11.46;67.71
10476;BME280;26166;48.264;11.436;2022-12-26T14:33:37;96531.25;;;11.45;68.05
10476;BME280;26166;48.264;11.436;2022-12-26T14:36:43;96530.28;;;11.46;67.58
10476;BME280;26166;48.264;11.436;2022-12-26T14:52:31;96523.19;;;11.46;68.07
10476;BME280;26166;48.264;11.436;2022-12-26T14:59:18;96534.56;;;11.47;67.99
10476;BME280;26166;48.264;11.436;2022-12-26T15:05:44;96535.38;;;11.47;67.64
10476;BME280;26166;48.264;11.436;2022-12-26T15:24:51;96504.97;;;11.45;67.83
10476;BME280;26166;48.264;11.436;2022-12-26T15:37:17;96498.06;;;11.44;67.93
10476;BME280;26166;48.264;11.436;2022-12-26T15:47:02;96498.88;;;11.44;67.85
10476;BME280;26166;48.264;11.436;2022-12-26T15:50:17;96512.03;;;11.44;68.05
10476;BME280;26166;48.264;11.436;2022-12-26T15:53:35;96513.66;;;11.45;67.63
10476;BME280;26166;48.264;11.436;2022-12-26T16:00:31;96515.47;;;11.45;67.72
10476;BME280;26166;48.264;11.436;2022-12-26T16:12:30;96429.69;;;11.44;67.58
10476;BME280;26166;48.264;11.436;2022-12-26T16:15:30;96467.50;;;11.43;67.52
10476;BME280;26166;48.264;11.436;2022-12-26T16:18:31;96473.41;;;11.45;67.49
10476;BME280;26166;48.264;11.436;2022-12-26T16:21:31;96462.88;;;11.45;67.65
10476;BME280;26166;48.264;11.436;2022-12-26T16:24:51;96467.31;;;11.44;67.72
10476;BME280;26166;48.264;11.436;2022-12-26T16:27:53;96441.81;;;11.45;67.38
10476;BME280;26166;48.264;11.436;2022-12-26T16:30:54;96462.88;;;11.45;67.23
10476;BME280;26166;48.264;11.436;2022-12-26T16:33:56;96456.97;;;11.43;67.38
10476;BME280;26166;48.264;11.436;2022-12-26T16:36:57;96467.63;;;11.41;67.27
10476;BME280;26166;48.264;11.436;2022-12-26T16:46:16;96466.00;;;11.40;67.47
10476;BME280;26166;48.264;11.436;2022-12-26T16:49:17;96466.81;;;11.41;66.91
10476;BME280;26166;48.264;11.436;2022-12-26T16:52:28;96464.38;;;11.39;67.02
10476;BME280;26166;48.264;11.436;2022-12-26T16:55:36;96455.66;;;11.39;66.89
10476;BME280;26166;48.264;11.436;2022-12-26T16:58:37;96471.75;;;11.35;67.20
10476;BME280;26166;48.264;11.436;2022-12-26T17:01:37;96478.03;;;11.34;66.90
10476;BME280;26166;48.264;11.436;2022-12-26T17:04:38;96470.94;;;11.35;67.28
10476;BME280;26166;48.264;11.436;2022-12-26T17:07:38;96459.75;;;11.33;67.00
10476;BME280;26166;48.264;11.436;2022-12-26T17:10:47;96462.25;;;11.34;67.19
10476;BME280;26166;48.264;11.436;2022-12-26T17:13:49;96488.53;;;11.34;67.13
10476;BME280;26166;48.264;11.436;2022-12-26T17:17:00;96491.31;;;11.33;67.08
10476;BME280;26166;48.264;11.436;2022-12-26T17:23:31;96477.34;;;11.32;67.03
10476;BME280;26166;48.264;11.436;2022-12-26T17:26:32;96505.13;;;11.35;67.34
10476;BME280;26166;48.264;11.436;2022-12-26T17:29:38;96497.41;;;11.33;67.11
10476;BME280;26166;48.264;11.436;2022-12-26T17:32:44;96493.78;;;11.34;67.16
10476;BME280;26166;48.264;11.436;2022-12-26T17:35:49;96501.84;;;11.33;66.98
10476;BME280;26166;48.264;11.436;2022-12-26T17:38:50;96499.06;;;11.34;67.15
10476;BME280;26166;48.264;11.436;2022-12-26T17:41:51;96493.78;;;11.34;67.10
10476;BME280;26166;48.264;11.436;2022-12-26T17:44:52;96504.81;;;11.30;67.42
10476;BME280;26166;48.264;11.436;2022-12-26T17:47:53;96489.03;;;11.38;66.99
10476;BME280;26166;48.264;11.436;2022-12-26T17:50:55;96482.59;;;11.41;67.06
10476;BME280;26166;48.264;11.436;2022-12-26T17:53:56;96458.59;;;11.44;66.60
10476;BME280;26166;48.264;11.436;2022-12-26T17:56:56;96465.31;;;11.46;66.54
10476;BME280;26166;48.264;11.436;2022-12-26T17:59:57;96498.56;;;11.47;66.69
10476;BME280;26166;48.264;11.436;2022-12-26T18:02:57;96499.38;;;11.48;66.41
10476;BME280;26166;48.264;11.436;2022-12-26T18:05:57;96483.41;;;11.49;66.52
10476;BME280;26166;48.264;11.436;2022-12-26T18:08:58;96471.75;;;11.52;66.44
10476;BME280;26166;48.264;11.436;2022-12-26T18:11:58;96479.66;;;11.52;66.02
10476;BME280;26166;48.264;11.436;2022-12-26T18:14:58;96490.97;;;11.52;66.25
10476;BME280;26166;48.264;11.436;2022-12-26T18:17:58;96482.91;;;11.54;66.19
10476;BME280;26166;48.264;11.436;2022-12-26T18:20:59;96492.63;;;11.53;65.85
10476;BME280;26166;48.264;11.436;2022-12-26T18:23:59;96486.53;;;11.53;65.68
10476;BME280;26166;48.264;11.436;2022-12-26T18:26:59;96482.91;;;11.54;65.83
10476;BME280;26166;48.264;11.436;2022-12-26T18:29:59;96475.69;;;11.56;65.63
10476;BME280;26166;48.264;11.436;2022-12-26T18:33:00;96479.28;;;11.55;65.90
10476;BME280;26166;48.264;11.436;2022-12-26T18:36:00;96488.84;;;11.56;66.10
10476;BME280;26166;48.264;11.436;2022-12-26T18:39:00;96489.66;;;11.56;65.76
10476;BME280;26166;48.264;11.436;2022-12-26T18:42:00;96473.69;;;11.58;65.54
10476;BME280;26166;48.264;11.436;2022-12-26T18:45:00;96467.81;;;11.56;65.86
10476;BME280;26166;48.264;11.436;2022-12-26T18:48:01;96475.50;;;11.57;65.85
10476;BME280;26166;48.264;11.436;2022-12-26T18:51:01;96482.59;;;11.57;65.43
10476;BME280;26166;48.264;11.436;2022-12-26T18:54:03;96494.75;;;11.58;65.47
10476;BME280;26166;48.264;11.436;2022-12-26T18:57:04;96489.50;;;11.58;65.64
10476;BME280;26166;48.264;11.436;2022-12-26T19:00:07;96495.56;;;11.58;65.36
10476;BME280;26166;48.264;11.436;2022-12-26T19:03:07;96507.09;;;11.57;65.42
10476;BME280;26166;48.264;11.436;2022-12-26T19:06:12;96504.44;;;11.57;65.77
10476;BME280;26166;48.264;11.436;2022-12-26T19:09:13;96483.41;;;11.57;65.81
10476;BME280;26166;48.264;11.436;2022-12-26T19:12:14;96494.75;;;11.58;65.46
10476;BME280;26166;48.264;11.436;2022-12-26T19:15:15;96497.38;;;11.58;65.51
10476;BME280;26166;48.264;11.436;2022-12-26T19:18:15;96504.44;;;11.57;65.19
10476;BME280;26166;48.264;11.436;2022-12-26T19:21:15;96493.94;;;11.57;65.58
10476;BME280;26166;48.264;11.436;2022-12-26T19:24:16;96493.94;;;11.57;65.31
10476;BME280;26166;48.264;11.436;2022-12-26T19:27:16;96507.91;;;11.58;65.53
10476;BME280;26166;48.264;11.436;2022-12-26T19:30:16;96494.75;;;11.58;65.38
10476;BME280;26166;48.264;11.436;2022-12-26T19:33:17;96489.81;;;11.55;65.17
10476;BME280;26166;48.264;11.436;2022-12-26T19:36:17;96485.41;;;11.55;64.88
10476;BME280;26166;48.264;11.436;2022-12-26T19:39:18;96495.06;;;11.55;65.16
10476;BME280;26166;48.264;11.436;2022-12-26T19:42:18;96503.97;;;11.54;65.20
10476;BME280;26166;48.264;11.436;2022-12-26T19:45:18;96506.44;;;11.55;65.18
10476;BME280;26166;48.264;11.436;2022-12-26T19:48:19;96502.00;;;11.56;64.98